sensor_id;sensor_type;location;lat;lon;timestamp;pressure;altitude;pressure_sealevel;temperature;humidity
26531;BME280;14201;43.188;24.160;2023-02-03T00:00:37;99935.91;;;4.97;62.56
26531;BME280;14201;43.188;24.160;2023-02-03T00:03:03;99938.31;;;5.07;61.94
26531;BME280;14201;43.188;24.160;2023-02-03T00:05:30;99938.53;;;5.10;62.76
26531;BME280;14201;43.188;24.160;2023-02-03T00:07:56;99933.84;;;5.05;62.61
26531;BME280;14201;43.188;24.160;2023-02-03T00:10:22;99928.31;;;5.12;62.44
26531;BME280;14201;43.188;24.160;2023-02-03T00:12:49;99940.53;;;5.15;62.31
26531;BME280;14201;43.188;24.160;2023-02-03T00:15:15;99939.91;;;5.05;63.48
26531;BME280;14201;43.188;24.160;2023-02-03T00:17:41;99934.19;;;5.23;62.60
26531;BME280;14201;43.188;24.160;2023-02-03T00:20:07;99926.50;;;5.36;61.68
26531;BME280;14201;43.188;24.160;2023-02-03T00:22:33;99941.78;;;5.33;61.35
26531;BME280;14201;43.188;24.160;2023-02-03T00:24:58;99934.84;;;5.32;61.77
26531;BME280;14201;43.188;24.160;2023-02-03T00:27:24;99943.75;;;5.24;61.69
26531;BME280;14201;43.188;24.160;2023-02-03T00:29:50;99945.53;;;5.25;62.42
26531;BME280;14201;43.188;24.160;2023-02-03T00:32:15;99959.19;;;5.36;62.13
26531;BME280;14201;43.188;24.160;2023-02-03T00:34:40;99946.28;;;5.36;61.67
26531;BME280;14201;43.188;24.160;2023-02-03T00:37:06;99943.66;;;5.22;61.85
26531;BME280;14201;43.188;24.160;2023-02-03T00:39:31;99951.81;;;5.28;62.72
26531;BME280;14201;43.188;24.160;2023-02-03T00:41:58;99959.63;;;5.55;61.02
26531;BME280;14201;43.188;24.160;2023-02-03T00:44:23;99970.19;;;5.33;62.28
26531;BME280;14201;43.188;24.160;2023-02-03T00:46:49;99975.25;;;5.57;60.76
26531;BME280;14201;43.188;24.160;2023-02-03T00:49:14;99979.19;;;5.51;60.72
26531;BME280;14201;43.188;24.160;2023-02-03T00:51:39;99975.53;;;5.61;59.88
26531;BME280;14201;43.188;24.160;2023-02-03T00:54:05;99976.25;;;5.59;60.61
26531;BME280;14201;43.188;24.160;2023-02-03T00:56:31;99982.69;;;5.65;59.27
26531;BME280;14201;43.188;24.160;2023-02-03T00:58:56;99986.75;;;5.62;60.30
26531;BME280;14201;43.188;24.160;2023-02-03T01:01:21;99974.06;;;5.65;60.33
26531;BME280;14201;43.188;24.160;2023-02-03T01:03:47;99978.13;;;5.61;60.74
26531;BME280;14201;43.188;24.160;2023-02-03T01:06:17;99973.84;;;5.62;60.71
26531;BME280;14201;43.188;24.160;2023-02-03T01:08:43;99973.88;;;5.75;60.04
26531;BME280;14201;43.188;24.160;2023-02-03T01:11:10;99978.06;;;5.73;59.99
26531;BME280;14201;43.188;24.160;2023-02-03T01:13:36;99985.31;;;5.79;59.69
26531;BME280;14201;43.188;24.160;2023-02-03T01:16:02;99981.03;;;5.79;58.98
26531;BME280;14201;43.188;24.160;2023-02-03T01:18:28;99978.66;;;5.69;59.58
26531;BME280;14201;43.188;24.160;2023-02-03T01:20:53;99985.09;;;5.76;59.51
26531;BME280;14201;43.188;24.160;2023-02-03T01:23:18;99978.16;;;5.75;60.02
26531;BME280;14201;43.188;24.160;2023-02-03T01:25:44;99981.97;;;5.80;59.79
26531;BME280;14201;43.188;24.160;2023-02-03T01:28:09;99978.22;;;5.63;59.07
26531;BME280;14201;43.188;24.160;2023-02-03T01:30:35;99990.56;;;5.67;60.31
26531;BME280;14201;43.188;24.160;2023-02-03T01:33:00;99978.41;;;5.66;60.76
26531;BME280;14201;43.188;24.160;2023-02-03T01:35:26;99979.25;;;5.78;60.76
26531;BME280;14201;43.188;24.160;2023-02-03T01:37:51;99980.94;;;5.64;60.28
26531;BME280;14201;43.188;24.160;2023-02-03T01:40:17;99987.16;;;5.68;60.62
26531;BME280;14201;43.188;24.160;2023-02-03T01:42:42;99974.09;;;5.78;60.65
26531;BME280;14201;43.188;24.160;2023-02-03T01:45:08;99988.56;;;5.63;61.26
26531;BME280;14201;43.188;24.160;2023-02-03T01:47:49;99986.19;;;5.66;61.58
26531;BME280;14201;43.188;24.160;2023-02-03T01:50:22;99979.59;;;5.58;61.65
26531;BME280;14201;43.188;24.160;2023-02-03T01:52:52;99974.66;;;5.61;61.81
26531;BME280;14201;43.188;24.160;2023-02-03T01:55:22;99977.91;;;5.58;61.78
26531;BME280;14201;43.188;24.160;2023-02-03T01:57:56;99967.69;;;5.60;61.31
26531;BME280;14201;43.188;24.160;2023-02-03T02:00:24;99969.28;;;5.58;62.30
26531;BME280;14201;43.188;24.160;2023-02-03T02:02:49;99978.19;;;5.49;62.67
26531;BME280;14201;43.188;24.160;2023-02-03T02:07:53;99978.91;;;5.60;62.61
26531;BME280;14201;43.188;24.160;2023-02-03T02:10:20;99976.03;;;5.56;62.03
26531;BME280;14201;43.188;24.160;2023-02-03T02:12:45;99988.53;;;5.49;63.52
26531;BME280;14201;43.188;24.160;2023-02-03T02:15:11;99980.41;;;5.57;63.09
26531;BME280;14201;43.188;24.160;2023-02-03T02:18:00;99987.16;;;5.55;63.79
26531;BME280;14201;43.188;24.160;2023-02-03T02:28:41;100011.56;;;5.46;64.31
26531;BME280;14201;43.188;24.160;2023-02-03T02:34:18;100023.34;;;5.55;64.50
26531;BME280;14201;43.188;24.160;2023-02-03T02:40:05;100028.22;;;5.38;65.70
26531;BME280;14201;43.188;24.160;2023-02-03T02:44:52;100031.38;;;5.59;65.04
26531;BME280;14201;43.188;24.160;2023-02-03T02:47:20;100035.56;;;5.57;65.12
26531;BME280;14201;43.188;24.160;2023-02-03T02:49:57;100032.75;;;5.54;65.04
26531;BME280;14201;43.188;24.160;2023-02-03T02:52:25;100032.22;;;5.46;65.65
26531;BME280;14201;43.188;24.160;2023-02-03T02:54:53;100027.50;;;5.27;66.37
26531;BME280;14201;43.188;24.160;2023-02-03T02:57:20;100027.09;;;5.35;66.73
26531;BME280;14201;43.188;24.160;2023-02-03T02:59:48;100029.38;;;5.30;66.48
26531;BME280;14201;43.188;24.160;2023-02-03T03:02:13;100024.75;;;5.38;66.74
26531;BME280;14201;43.188;24.160;2023-02-03T03:04:39;100017.41;;;5.44;66.03
26531;BME280;14201;43.188;24.160;2023-02-03T03:07:07;100012.03;;;5.41;65.60
26531;BME280;14201;43.188;24.160;2023-02-03T03:09:44;100031.63;;;5.37;66.96
26531;BME280;14201;43.188;24.160;2023-02-03T03:12:16;100037.03;;;5.28;66.97
26531;BME280;14201;43.188;24.160;2023-02-03T03:14:44;100026.34;;;5.36;66.74
26531;BME280;14201;43.188;24.160;2023-02-03T03:17:13;100040.19;;;5.24;67.19
26531;BME280;14201;43.188;24.160;2023-02-03T03:19:41;100058.56;;;5.29;67.40
26531;BME280;14201;43.188;24.160;2023-02-03T03:22:08;100050.34;;;5.35;67.61
26531;BME280;14201;43.188;24.160;2023-02-03T03:24:44;100036.31;;;5.31;67.68
26531;BME280;14201;43.188;24.160;2023-02-03T03:29:46;100047.25;;;5.27;68.04
26531;BME280;14201;43.188;24.160;2023-02-03T03:32:13;100057.47;;;5.25;68.07
26531;BME280;14201;43.188;24.160;2023-02-03T03:34:39;100066.22;;;5.27;67.62
26531;BME280;14201;43.188;24.160;2023-02-03T03:37:13;100058.03;;;5.21;68.12
26531;BME280;14201;43.188;24.160;2023-02-03T03:44:44;100065.94;;;5.11;68.87
26531;BME280;14201;43.188;24.160;2023-02-03T03:47:20;100054.38;;;5.06;69.39
26531;BME280;14201;43.188;24.160;2023-02-03T03:49:48;100058.66;;;5.05;69.29
26531;BME280;14201;43.188;24.160;2023-02-03T03:52:16;100048.53;;;5.08;68.81
26531;BME280;14201;43.188;24.160;2023-02-03T03:54:43;100056.06;;;5.05;69.09
26531;BME280;14201;43.188;24.160;2023-02-03T03:57:14;100061.03;;;5.02;69.15
26531;BME280;14201;43.188;24.160;2023-02-03T03:59:43;100053.06;;;4.99;69.41
26531;BME280;14201;43.188;24.160;2023-02-03T04:02:10;100057.44;;;5.00;69.71
26531;BME280;14201;43.188;24.160;2023-02-03T04:04:37;100052.72;;;5.06;69.88
26531;BME280;14201;43.188;24.160;2023-02-03T04:07:03;100058.44;;;5.02;69.60
26531;BME280;14201;43.188;24.160;2023-02-03T04:09:29;100058.88;;;5.08;69.55
26531;BME280;14201;43.188;24.160;2023-02-03T04:11:54;100073.94;;;5.02;70.31
26531;BME280;14201;43.188;24.160;2023-02-03T04:14:25;100070.81;;;4.95;70.40
26531;BME280;14201;43.188;24.160;2023-02-03T04:16:51;100078.56;;;4.95;70.29
26531;BME280;14201;43.188;24.160;2023-02-03T04:19:16;100082.75;;;5.06;69.75
26531;BME280;14201;43.188;24.160;2023-02-03T04:21:42;100094.34;;;4.99;69.92
26531;BME280;14201;43.188;24.160;2023-02-03T04:24:07;100090.19;;;5.01;69.10
26531;BME280;14201;43.188;24.160;2023-02-03T04:26:33;100093.28;;;5.21;69.05
26531;BME280;14201;43.188;24.160;2023-02-03T04:28:58;100107.47;;;5.14;69.47
26531;BME280;14201;43.188;24.160;2023-02-03T04:31:24;100099.25;;;5.20;68.48
26531;BME280;14201;43.188;24.160;2023-02-03T04:33:49;100106.53;;;5.13;69.17
26531;BME280;14201;43.188;24.160;2023-02-03T04:36:14;100106.91;;;5.18;68.62
26531;BME280;14201;43.188;24.160;2023-02-03T04:38:40;100103.88;;;5.12;69.33
26531;BME280;14201;43.188;24.160;2023-02-03T04:41:05;100105.66;;;5.13;69.57
26531;BME280;14201;43.188;24.160;2023-02-03T04:43:31;100101.31;;;5.12;69.81
26531;BME280;14201;43.188;24.160;2023-02-03T04:45:58;100119.13;;;5.09;69.57
26531;BME280;14201;43.188;24.160;2023-02-03T04:48:24;100118.47;;;5.00;69.77
26531;BME280;14201;43.188;24.160;2023-02-03T04:50:49;100118.69;;;5.15;69.69
26531;BME280;14201;43.188;24.160;2023-02-03T04:53:14;100132.72;;;5.18;69.20
26531;BME280;14201;43.188;24.160;2023-02-03T04:55:40;100119.81;;;5.18;69.37
26531;BME280;14201;43.188;24.160;2023-02-03T04:58:05;100131.34;;;5.11;69.06
26531;BME280;14201;43.188;24.160;2023-02-03T05:00:31;100135.63;;;5.11;69.76
26531;BME280;14201;43.188;24.160;2023-02-03T05:02:56;100132.28;;;5.12;69.12
26531;BME280;14201;43.188;24.160;2023-02-03T05:05:22;100146.22;;;5.02;69.58
26531;BME280;14201;43.188;24.160;2023-02-03T05:07:47;100156.06;;;4.96;70.70
26531;BME280;14201;43.188;24.160;2023-02-03T05:10:12;100162.72;;;5.04;70.27
26531;BME280;14201;43.188;24.160;2023-02-03T05:12:38;100155.16;;;5.07;69.38
26531;BME280;14201;43.188;24.160;2023-02-03T05:15:03;100156.84;;;5.07;69.77
26531;BME280;14201;43.188;24.160;2023-02-03T05:17:29;100162.13;;;5.08;69.59
26531;BME280;14201;43.188;24.160;2023-02-03T05:19:54;100169.44;;;5.14;70.06
26531;BME280;14201;43.188;24.160;2023-02-03T05:22:20;100174.03;;;5.06;69.94
26531;BME280;14201;43.188;24.160;2023-02-03T05:24:45;100171.66;;;5.09;70.08
26531;BME280;14201;43.188;24.160;2023-02-03T05:27:11;100171.03;;;5.00;70.07
26531;BME280;14201;43.188;24.160;2023-02-03T05:29:36;100173.69;;;4.90;71.29
26531;BME280;14201;43.188;24.160;2023-02-03T05:32:01;100186.16;;;4.84;71.17
26531;BME280;14201;43.188;24.160;2023-02-03T05:34:27;100184.94;;;4.90;71.25
26531;BME280;14201;43.188;24.160;2023-02-03T05:36:52;100189.09;;;5.00;70.35
26531;BME280;14201;43.188;24.160;2023-02-03T05:39:18;100189.28;;;5.03;70.77
26531;BME280;14201;43.188;24.160;2023-02-03T05:41:43;100187.50;;;5.02;70.64
26531;BME280;14201;43.188;24.160;2023-02-03T05:44:21;100196.84;;;5.00;69.88
26531;BME280;14201;43.188;24.160;2023-02-03T05:46:47;100205.59;;;5.02;70.66
26531;BME280;14201;43.188;24.160;2023-02-03T05:49:14;100205.91;;;4.95;70.64
26531;BME280;14201;43.188;24.160;2023-02-03T05:51:39;100205.59;;;5.02;70.58
26531;BME280;14201;43.188;24.160;2023-02-03T05:54:05;100228.91;;;4.92;71.56
26531;BME280;14201;43.188;24.160;2023-02-03T05:56:30;100219.38;;;4.91;71.04
26531;BME280;14201;43.188;24.160;2023-02-03T05:58:56;100231.94;;;4.98;71.10
26531;BME280;14201;43.188;24.160;2023-02-03T06:01:21;100240.91;;;5.03;70.90
26531;BME280;14201;43.188;24.160;2023-02-03T06:03:47;100240.03;;;5.03;71.17
26531;BME280;14201;43.188;24.160;2023-02-03T06:06:12;100244.19;;;5.01;71.47
26531;BME280;14201;43.188;24.160;2023-02-03T06:08:38;100236.56;;;5.02;71.36
26531;BME280;14201;43.188;24.160;2023-02-03T06:11:04;100245.88;;;5.12;70.68
26531;BME280;14201;43.188;24.160;2023-02-03T06:13:29;100248.22;;;4.97;71.63
26531;BME280;14201;43.188;24.160;2023-02-03T06:15:55;100249.03;;;5.08;70.64
26531;BME280;14201;43.188;24.160;2023-02-03T06:18:20;100256.22;;;5.12;71.02
26531;BME280;14201;43.188;24.160;2023-02-03T06:20:46;100251.94;;;5.12;70.94
26531;BME280;14201;43.188;24.160;2023-02-03T06:23:11;100254.06;;;5.06;71.22
26531;BME280;14201;43.188;24.160;2023-02-03T06:25:36;100246.66;;;5.23;70.46
26531;BME280;14201;43.188;24.160;2023-02-03T06:28:02;100254.50;;;5.01;70.73
26531;BME280;14201;43.188;24.160;2023-02-03T06:30:27;100250.81;;;4.97;70.81
26531;BME280;14201;43.188;24.160;2023-02-03T06:32:53;100245.63;;;5.09;70.68
26531;BME280;14201;43.188;24.160;2023-02-03T06:35:19;100248.34;;;5.10;70.68
26531;BME280;14201;43.188;24.160;2023-02-03T06:37:45;100250.81;;;5.09;70.79
26531;BME280;14201;43.188;24.160;2023-02-03T06:40:10;100253.63;;;5.24;69.69
26531;BME280;14201;43.188;24.160;2023-02-03T06:42:36;100252.38;;;5.19;70.26
26531;BME280;14201;43.188;24.160;2023-02-03T06:45:02;100263.50;;;5.29;69.44
26531;BME280;14201;43.188;24.160;2023-02-03T06:47:27;100255.19;;;5.22;70.38
26531;BME280;14201;43.188;24.160;2023-02-03T06:49:53;100264.06;;;5.25;69.84
26531;BME280;14201;43.188;24.160;2023-02-03T06:52:18;100260.44;;;5.23;69.60
26531;BME280;14201;43.188;24.160;2023-02-03T06:54:44;100265.41;;;5.32;69.43
26531;BME280;14201;43.188;24.160;2023-02-03T06:57:09;100278.44;;;5.33;70.05
26531;BME280;14201;43.188;24.160;2023-02-03T06:59:35;100280.47;;;5.38;69.78
26531;BME280;14201;43.188;24.160;2023-02-03T07:02:00;100283.38;;;5.42;69.46
26531;BME280;14201;43.188;24.160;2023-02-03T07:04:26;100273.16;;;5.32;69.06
26531;BME280;14201;43.188;24.160;2023-02-03T07:06:55;100290.91;;;5.27;68.88
26531;BME280;14201;43.188;24.160;2023-02-03T07:09:20;100276.75;;;5.22;68.40
26531;BME280;14201;43.188;24.160;2023-02-03T07:11:46;100282.69;;;5.21;68.61
26531;BME280;14201;43.188;24.160;2023-02-03T07:14:11;100279.53;;;5.13;68.91
26531;BME280;14201;43.188;24.160;2023-02-03T07:16:37;100276.75;;;5.10;68.83
26531;BME280;14201;43.188;24.160;2023-02-03T07:19:03;100265.84;;;5.03;68.18
26531;BME280;14201;43.188;24.160;2023-02-03T07:21:28;100282.78;;;4.99;68.87
26531;BME280;14201;43.188;24.160;2023-02-03T07:23:54;100291.91;;;5.18;68.47
26531;BME280;14201;43.188;24.160;2023-02-03T07:26:19;100280.56;;;5.39;69.63
26531;BME280;14201;43.188;24.160;2023-02-03T07:28:47;100286.44;;;5.85;68.23
26531;BME280;14201;43.188;24.160;2023-02-03T07:31:13;100288.69;;;6.04;67.49
26531;BME280;14201;43.188;24.160;2023-02-03T07:33:38;100285.22;;;6.41;65.52
26531;BME280;14201;43.188;24.160;2023-02-03T07:36:04;100286.56;;;6.61;65.23
26531;BME280;14201;43.188;24.160;2023-02-03T07:38:30;100291.50;;;6.69;64.26
26531;BME280;14201;43.188;24.160;2023-02-03T07:40:55;100298.97;;;6.78;63.64
26531;BME280;14201;43.188;24.160;2023-02-03T07:43:21;100285.34;;;6.81;62.48
26531;BME280;14201;43.188;24.160;2023-02-03T07:45:47;100294.97;;;6.70;63.25
26531;BME280;14201;43.188;24.160;2023-02-03T07:48:12;100305.09;;;6.92;61.83
26531;BME280;14201;43.188;24.160;2023-02-03T07:50:38;100304.47;;;6.83;61.13
26531;BME280;14201;43.188;24.160;2023-02-03T07:53:04;100301.41;;;6.88;61.84
26531;BME280;14201;43.188;24.160;2023-02-03T07:55:30;100315.47;;;6.92;60.66
26531;BME280;14201;43.188;24.160;2023-02-03T07:57:56;100310.69;;;6.98;61.90
26531;BME280;14201;43.188;24.160;2023-02-03T08:00:22;100311.16;;;7.31;60.64
26531;BME280;14201;43.188;24.160;2023-02-03T08:02:47;100308.03;;;7.63;59.28
26531;BME280;14201;43.188;24.160;2023-02-03T08:05:13;100305.53;;;7.92;59.46
26531;BME280;14201;43.188;24.160;2023-02-03T08:07:39;100309.75;;;8.18;58.42
26531;BME280;14201;43.188;24.160;2023-02-03T08:10:06;100307.84;;;8.42;57.70
26531;BME280;14201;43.188;24.160;2023-02-03T08:12:32;100308.31;;;8.64;56.43
26531;BME280;14201;43.188;24.160;2023-02-03T08:14:57;100307.38;;;8.77;55.97
26531;BME280;14201;43.188;24.160;2023-02-03T08:17:23;100302.72;;;9.01;55.27
26531;BME280;14201;43.188;24.160;2023-02-03T08:19:48;100330.09;;;9.10;55.22
26531;BME280;14201;43.188;24.160;2023-02-03T08:22:14;100315.91;;;9.34;54.38
26531;BME280;14201;43.188;24.160;2023-02-03T08:24:45;100310.50;;;9.61;52.84
26531;BME280;14201;43.188;24.160;2023-02-03T08:27:15;100328.84;;;9.33;51.36
26531;BME280;14201;43.188;24.160;2023-02-03T08:29:42;100333.59;;;9.25;52.09
26531;BME280;14201;43.188;24.160;2023-02-03T08:32:09;100330.72;;;9.20;51.72
26531;BME280;14201;43.188;24.160;2023-02-03T08:34:35;100327.41;;;9.23;51.13
26531;BME280;14201;43.188;24.160;2023-02-03T08:37:01;100334.09;;;9.34;52.87
26531;BME280;14201;43.188;24.160;2023-02-03T08:39:27;100320.81;;;9.59;51.75
26531;BME280;14201;43.188;24.160;2023-02-03T08:41:53;100312.22;;;9.75;50.07
26531;BME280;14201;43.188;24.160;2023-02-03T08:44:19;100322.84;;;9.95;49.54
26531;BME280;14201;43.188;24.160;2023-02-03T08:46:48;100317.41;;;10.07;49.18
26531;BME280;14201;43.188;24.160;2023-02-03T08:49:14;100309.28;;;10.17;49.45
26531;BME280;14201;43.188;24.160;2023-02-03T08:51:39;100307.34;;;10.29;48.78
26531;BME280;14201;43.188;24.160;2023-02-03T08:54:05;100311.88;;;10.48;48.47
26531;BME280;14201;43.188;24.160;2023-02-03T08:56:31;100293.97;;;10.71;47.66
26531;BME280;14201;43.188;24.160;2023-02-03T08:58:58;100291.19;;;10.84;47.64
26531;BME280;14201;43.188;24.160;2023-02-03T09:01:24;100314.50;;;10.99;46.37
26531;BME280;14201;43.188;24.160;2023-02-03T09:03:50;100314.75;;;11.03;46.58
26531;BME280;14201;43.188;24.160;2023-02-03T09:06:16;100300.09;;;11.06;46.42
26531;BME280;14201;43.188;24.160;2023-02-03T09:08:42;100316.44;;;11.19;45.60
26531;BME280;14201;43.188;24.160;2023-02-03T09:11:12;100305.88;;;11.34;45.54
26531;BME280;14201;43.188;24.160;2023-02-03T09:13:39;100315.94;;;11.45;45.67
26531;BME280;14201;43.188;24.160;2023-02-03T09:16:08;100338.84;;;11.50;46.72
26531;BME280;14201;43.188;24.160;2023-02-03T09:18:33;100316.41;;;11.54;44.88
26531;BME280;14201;43.188;24.160;2023-02-03T09:21:01;100318.72;;;11.48;44.89
26531;BME280;14201;43.188;24.160;2023-02-03T09:23:26;100320.97;;;11.58;44.36
26531;BME280;14201;43.188;24.160;2023-02-03T09:25:52;100302.19;;;11.65;42.37
26531;BME280;14201;43.188;24.160;2023-02-03T09:28:18;100294.56;;;11.70;42.31
26531;BME280;14201;43.188;24.160;2023-02-03T09:30:43;100297.09;;;11.68;42.92
26531;BME280;14201;43.188;24.160;2023-02-03T09:33:09;100303.56;;;11.76;42.53
26531;BME280;14201;43.188;24.160;2023-02-03T09:35:34;100302.44;;;11.53;42.55
26531;BME280;14201;43.188;24.160;2023-02-03T09:38:00;100309.94;;;11.63;42.47
26531;BME280;14201;43.188;24.160;2023-02-03T09:40:29;100305.13;;;11.73;43.12
26531;BME280;14201;43.188;24.160;2023-02-03T09:43:02;100301.72;;;11.92;43.41
26531;BME280;14201;43.188;24.160;2023-02-03T09:45:30;100307.56;;;12.04;42.96
26531;BME280;14201;43.188;24.160;2023-02-03T09:48:14;100306.31;;;12.15;43.11
26531;BME280;14201;43.188;24.160;2023-02-03T09:50:42;100304.56;;;12.34;42.83
26531;BME280;14201;43.188;24.160;2023-02-03T09:53:36;100288.13;;;12.56;42.31
26531;BME280;14201;43.188;24.160;2023-02-03T09:56:18;100302.09;;;12.37;41.93
26531;BME280;14201;43.188;24.160;2023-02-03T09:58:46;100288.91;;;12.53;42.57
26531;BME280;14201;43.188;24.160;2023-02-03T10:01:12;100285.31;;;12.71;41.72
26531;BME280;14201;43.188;24.160;2023-02-03T10:06:35;100271.81;;;12.03;40.36
26531;BME280;14201;43.188;24.160;2023-02-03T10:09:15;100278.88;;;11.88;41.98
26531;BME280;14201;43.188;24.160;2023-02-03T10:11:54;100284.03;;;11.68;41.05
26531;BME280;14201;43.188;24.160;2023-02-03T10:17:17;100270.25;;;11.71;40.68
26531;BME280;14201;43.188;24.160;2023-02-03T10:19:55;100273.66;;;11.88;42.10
26531;BME280;14201;43.188;24.160;2023-02-03T10:22:25;100263.41;;;11.91;41.56
26531;BME280;14201;43.188;24.160;2023-02-03T10:25:18;100270.88;;;11.65;42.54
26531;BME280;14201;43.188;24.160;2023-02-03T10:27:46;100271.75;;;11.30;42.12
26531;BME280;14201;43.188;24.160;2023-02-03T10:30:24;100265.75;;;11.14;42.08
26531;BME280;14201;43.188;24.160;2023-02-03T10:32:53;100264.00;;;10.46;43.60
26531;BME280;14201;43.188;24.160;2023-02-03T10:35:21;100246.72;;;10.81;44.41
26531;BME280;14201;43.188;24.160;2023-02-03T10:37:55;100259.91;;;10.84;44.21
26531;BME280;14201;43.188;24.160;2023-02-03T10:40:23;100267.06;;;10.88;42.78
26531;BME280;14201;43.188;24.160;2023-02-03T10:42:50;100244.72;;;10.93;43.21
26531;BME280;14201;43.188;24.160;2023-02-03T10:45:38;100263.53;;;11.22;44.29
26531;BME280;14201;43.188;24.160;2023-02-03T10:48:05;100259.53;;;11.29;43.49
26531;BME280;14201;43.188;24.160;2023-02-03T10:50:34;100260.03;;;11.03;43.23
26531;BME280;14201;43.188;24.160;2023-02-03T10:53:25;100252.09;;;10.84;43.87
26531;BME280;14201;43.188;24.160;2023-02-03T10:55:58;100245.06;;;10.99;44.49
26531;BME280;14201;43.188;24.160;2023-02-03T10:58:26;100253.72;;;11.34;43.14
26531;BME280;14201;43.188;24.160;2023-02-03T11:03:36;100258.91;;;11.70;41.62
26531;BME280;14201;43.188;24.160;2023-02-03T11:08:28;100251.16;;;11.90;41.52
26531;BME280;14201;43.188;24.160;2023-02-03T11:11:00;100234.03;;;11.77;41.76
26531;BME280;14201;43.188;24.160;2023-02-03T11:13:26;100224.81;;;12.03;42.66
26531;BME280;14201;43.188;24.160;2023-02-03T11:18:39;100232.28;;;12.54;41.44
26531;BME280;14201;43.188;24.160;2023-02-03T11:21:21;100222.72;;;12.74;42.25
26531;BME280;14201;43.188;24.160;2023-02-03T11:26:23;100230.63;;;12.56;39.16
26531;BME280;14201;43.188;24.160;2023-02-03T11:28:50;100231.41;;;12.14;40.48
26531;BME280;14201;43.188;24.160;2023-02-03T11:31:21;100231.84;;;11.68;41.12
26531;BME280;14201;43.188;24.160;2023-02-03T11:34:21;100231.50;;;11.42;41.34
26531;BME280;14201;43.188;24.160;2023-02-03T11:36:39;100236.19;;;11.68;39.92
26531;BME280;14201;43.188;24.160;2023-02-03T11:39:09;100229.75;;;11.97;40.84
26531;BME280;14201;43.188;24.160;2023-02-03T11:41:36;100225.94;;;12.28;40.41
26531;BME280;14201;43.188;24.160;2023-02-03T11:44:08;100216.44;;;12.49;39.65
26531;BME280;14201;43.188;24.160;2023-02-03T11:46:36;100217.06;;;12.24;38.76
26531;BME280;14201;43.188;24.160;2023-02-03T11:49:04;100208.47;;;12.07;39.78
26531;BME280;14201;43.188;24.160;2023-02-03T11:51:46;100207.50;;;12.25;40.45
26531;BME280;14201;43.188;24.160;2023-02-03T11:54:31;100206.47;;;12.01;37.85
26531;BME280;14201;43.188;24.160;2023-02-03T11:57:13;100200.75;;;11.73;38.89
26531;BME280;14201;43.188;24.160;2023-02-03T11:59:49;100199.81;;;11.53;40.79
26531;BME280;14201;43.188;24.160;2023-02-03T12:02:27;100209.94;;;11.82;41.06
26531;BME280;14201;43.188;24.160;2023-02-03T12:10:12;100197.47;;;12.34;39.16
26531;BME280;14201;43.188;24.160;2023-02-03T12:17:52;100206.25;;;12.36;38.46
26531;BME280;14201;43.188;24.160;2023-02-03T12:20:36;100193.00;;;12.31;36.52
26531;BME280;14201;43.188;24.160;2023-02-03T12:30:23;100181.00;;;12.56;35.77
26531;BME280;14201;43.188;24.160;2023-02-03T12:32:51;100181.69;;;12.52;36.83
26531;BME280;14201;43.188;24.160;2023-02-03T12:35:25;100180.03;;;12.54;36.30
26531;BME280;14201;43.188;24.160;2023-02-03T12:37:55;100175.72;;;12.54;36.89
26531;BME280;14201;43.188;24.160;2023-02-03T12:40:28;100178.91;;;12.68;36.81
26531;BME280;14201;43.188;24.160;2023-02-03T12:43:03;100178.28;;;12.74;35.94
26531;BME280;14201;43.188;24.160;2023-02-03T12:45:35;100181.44;;;12.46;36.35
26531;BME280;14201;43.188;24.160;2023-02-03T12:48:09;100179.00;;;12.50;36.76
26531;BME280;14201;43.188;24.160;2023-02-03T12:50:52;100172.63;;;12.44;36.35
26531;BME280;14201;43.188;24.160;2023-02-03T12:53:25;100156.50;;;12.54;36.15
26531;BME280;14201;43.188;24.160;2023-02-03T12:56:02;100149.25;;;12.68;36.31
26531;BME280;14201;43.188;24.160;2023-02-03T12:58:30;100153.53;;;12.45;36.66
26531;BME280;14201;43.188;24.160;2023-02-03T13:01:05;100152.94;;;12.52;37.19
26531;BME280;14201;43.188;24.160;2023-02-03T13:03:35;100155.88;;;12.59;36.22
26531;BME280;14201;43.188;24.160;2023-02-03T13:08:36;100160.16;;;12.57;36.58
26531;BME280;14201;43.188;24.160;2023-02-03T13:13:48;100141.97;;;12.39;35.82
26531;BME280;14201;43.188;24.160;2023-02-03T13:16:15;100155.53;;;12.31;35.16
26531;BME280;14201;43.188;24.160;2023-02-03T13:18:49;100146.34;;;12.19;36.18
26531;BME280;14201;43.188;24.160;2023-02-03T13:21:16;100152.53;;;12.02;35.60
26531;BME280;14201;43.188;24.160;2023-02-03T13:23:41;100154.59;;;11.90;36.83
26531;BME280;14201;43.188;24.160;2023-02-03T13:31:22;100147.59;;;10.79;39.16
26531;BME280;14201;43.188;24.160;2023-02-03T13:41:55;100140.66;;;10.11;39.74
26531;BME280;14201;43.188;24.160;2023-02-03T13:44:33;100144.13;;;10.28;39.69
26531;BME280;14201;43.188;24.160;2023-02-03T13:46:59;100146.44;;;10.38;39.57
26531;BME280;14201;43.188;24.160;2023-02-03T13:51:54;100134.97;;;10.18;39.32
26531;BME280;14201;43.188;24.160;2023-02-03T13:54:41;100144.81;;;9.91;39.76
26531;BME280;14201;43.188;24.160;2023-02-03T13:57:14;100140.53;;;9.75;40.23
26531;BME280;14201;43.188;24.160;2023-02-03T13:59:44;100147.09;;;9.69;40.30
26531;BME280;14201;43.188;24.160;2023-02-03T14:04:52;100145.38;;;9.53;41.00
26531;BME280;14201;43.188;24.160;2023-02-03T14:07:31;100155.66;;;9.51;41.04
26531;BME280;14201;43.188;24.160;2023-02-03T14:12:31;100147.00;;;9.51;41.20
26531;BME280;14201;43.188;24.160;2023-02-03T14:14:59;100152.19;;;9.51;41.24
26531;BME280;14201;43.188;24.160;2023-02-03T14:20:00;100131.38;;;9.51;39.57
26531;BME280;14201;43.188;24.160;2023-02-03T14:22:26;100141.03;;;9.37;39.46